createdAt,value
2017-07-17T00:00:24.571Z,1004.36
2017-07-17T00:01:34.970Z,1004.37
2017-07-17T00:02:45.347Z,1004.37
2017-07-17T00:03:55.695Z,1004.4
2017-07-17T00:05:06.060Z,1004.37
2017-07-17T00:06:16.427Z,1004.38
2017-07-17T00:07:26.521Z,1004.36
2017-07-17T00:08:36.555Z,1004.33
2017-07-17T00:09:46.895Z,1004.35
2017-07-17T00:10:57.259Z,1004.29
2017-07-17T00:12:07.607Z,1004.32
2017-07-17T00:13:17.959Z,1004.29
2017-07-17T00:14:28.324Z,1004.25
2017-07-17T00:15:38.676Z,1004.25
2017-07-17T00:16:49.030Z,1004.19
2017-07-17T00:17:59.386Z,1004.25
2017-07-17T00:19:09.429Z,1004.21
2017-07-17T00:20:19.771Z,1004.21
2017-07-17T00:21:29.804Z,1004.2
2017-07-17T00:22:39.840Z,1004.17
2017-07-17T00:23:50.183Z,1004.22
2017-07-17T00:25:00.530Z,1004.19
2017-07-17T00:26:10.900Z,1004.17
2017-07-17T00:27:20.933Z,1004.21
2017-07-17T00:28:31.307Z,1004.17
2017-07-17T00:29:41.338Z,1004.16
2017-07-17T00:30:51.729Z,1004.14
2017-07-17T00:32:02.088Z,1004.16
2017-07-17T00:33:12.129Z,1004.16
2017-07-17T00:34:22.496Z,1004.16
2017-07-17T00:35:32.190Z,1004.14
2017-07-17T00:36:42.601Z,1004.15
2017-07-17T00:37:52.940Z,1004.16
2017-07-17T00:39:03.292Z,1004.13
2017-07-17T00:40:13.633Z,1004.12
2017-07-17T00:41:23.989Z,1004.14
2017-07-17T00:42:34.064Z,1004.14
2017-07-17T00:43:44.408Z,1004.11
2017-07-17T00:44:54.777Z,1004.07
2017-07-17T00:46:05.150Z,1004.12
2017-07-17T00:47:15.182Z,1004.08
2017-07-17T00:48:25.597Z,1004.12
2017-07-17T00:49:35.962Z,1004.08
2017-07-17T00:50:46.333Z,1004.07
2017-07-17T00:51:56.054Z,1004.08
2017-07-17T00:53:06.429Z,1004.08
2017-07-17T00:54:16.844Z,1004.11
2017-07-17T00:55:27.207Z,1004.09
2017-07-17T00:56:37.568Z,1004.08
2017-07-17T00:57:47.930Z,1004.1
2017-07-17T00:58:58.280Z,1004.03
2017-07-17T01:00:08.676Z,1004.08
2017-07-17T01:01:18.713Z,1004.08
2017-07-17T01:02:28.764Z,1004.04
2017-07-17T01:03:39.126Z,1004.07
2017-07-17T01:04:49.164Z,1004.08
2017-07-17T01:05:59.565Z,1004.09
2017-07-17T01:07:09.285Z,1004.05
2017-07-17T01:08:19.316Z,1004.07
2017-07-17T01:09:29.672Z,1004.06
2017-07-17T01:10:40.025Z,1004.04
2017-07-17T01:11:50.425Z,1004.05
2017-07-17T01:13:00.450Z,1004.05
2017-07-17T01:14:10.821Z,1004.01
2017-07-17T01:15:21.174Z,1004.03
2017-07-17T01:16:31.531Z,1003.99
2017-07-17T01:17:41.928Z,1004.05
2017-07-17T01:18:52.272Z,1004.01
2017-07-17T01:20:02.302Z,1004.03
2017-07-17T01:21:12.655Z,1004.01
2017-07-17T01:22:22.995Z,1004
2017-07-17T01:23:33.393Z,1003.98
2017-07-17T01:24:43.743Z,1003.96
2017-07-17T01:25:54.100Z,1003.96
2017-07-17T01:27:03.821Z,1003.98
2017-07-17T01:28:13.861Z,1004
2017-07-17T01:29:24.259Z,1003.93
2017-07-17T01:30:34.613Z,1003.92
2017-07-17T01:31:44.960Z,1003.94
2017-07-17T01:32:55.313Z,1003.92
2017-07-17T01:34:05.341Z,1003.91
2017-07-17T01:35:15.733Z,1003.87
2017-07-17T01:36:25.761Z,1003.88
2017-07-17T01:37:36.110Z,1003.91
2017-07-17T01:38:46.156Z,1003.87
2017-07-17T01:39:56.513Z,1003.9
2017-07-17T01:41:06.914Z,1003.88
2017-07-17T01:42:16.624Z,1003.87
2017-07-17T01:43:26.652Z,1003.88
2017-07-17T01:44:37.002Z,1003.88
2017-07-17T01:45:47.349Z,1003.89
2017-07-17T01:46:57.437Z,1003.91
2017-07-17T01:48:07.778Z,1003.92
2017-07-17T01:49:18.146Z,1003.93
2017-07-17T01:50:28.495Z,1003.93
2017-07-17T01:51:38.840Z,1003.92
2017-07-17T01:52:49.239Z,1003.95
2017-07-17T01:53:59.261Z,1003.95
2017-07-17T01:55:09.614Z,1003.97
2017-07-17T01:56:19.969Z,1003.92
2017-07-17T01:57:30.018Z,1003.92
2017-07-17T01:58:40.427Z,1003.93
2017-07-17T01:59:50.785Z,1003.92
2017-07-17T02:01:01.147Z,1003.93
2017-07-17T02:02:11.173Z,1003.91
2017-07-17T02:03:21.206Z,1003.97
2017-07-17T02:04:31.603Z,1003.96
2017-07-17T02:05:41.958Z,1003.99
2017-07-17T02:06:52.321Z,1003.97
2017-07-17T02:08:02.031Z,1003.98
2017-07-17T02:09:12.373Z,1003.99
2017-07-17T02:10:22.775Z,1003.98
2017-07-17T02:11:32.791Z,1004.01
2017-07-17T02:12:42.513Z,1003.99
2017-07-17T02:13:52.539Z,1004.02
2017-07-17T02:15:02.886Z,1004.01
2017-07-17T02:16:13.299Z,1004.06
2017-07-17T02:17:23.326Z,1004.04
2017-07-17T02:18:33.687Z,1004.03
2017-07-17T02:19:44.044Z,1004.05
2017-07-17T02:20:54.083Z,1004
2017-07-17T02:22:04.485Z,1004
2017-07-17T02:23:14.825Z,1003.99
2017-07-17T02:24:25.186Z,1003.98
2017-07-17T02:25:35.552Z,1003.95
2017-07-17T02:26:45.911Z,1004.02
2017-07-17T02:27:56.327Z,1003.99
2017-07-17T02:29:06.369Z,1003.94
2017-07-17T02:30:16.413Z,1003.95
2017-07-17T02:31:26.768Z,1003.94
2017-07-17T02:32:37.111Z,1003.94
2017-07-17T02:33:47.506Z,1003.89
2017-07-17T02:34:57.864Z,1003.88
2017-07-17T02:36:08.209Z,1003.81
2017-07-17T02:37:18.548Z,1003.77
2017-07-17T02:38:28.567Z,1003.8
2017-07-17T02:39:38.650Z,1003.81
2017-07-17T02:40:48.350Z,1003.83
2017-07-17T02:41:58.691Z,1003.85
2017-07-17T02:43:09.029Z,1003.87
2017-07-17T02:44:19.385Z,1003.87
2017-07-17T02:45:29.833Z,1003.89
2017-07-17T02:46:39.550Z,1003.86
2017-07-17T02:47:49.925Z,1003.85
2017-07-17T02:49:00.279Z,1003.87
2017-07-17T02:50:10.613Z,1003.86
2017-07-17T02:51:21.022Z,1003.9
2017-07-17T02:52:31.374Z,1003.86
2017-07-17T02:53:41.083Z,1003.92
2017-07-17T02:54:51.113Z,1003.9
2017-07-17T02:56:01.501Z,1003.89
2017-07-17T02:57:11.578Z,1003.89
2017-07-17T02:58:21.944Z,1003.87
2017-07-17T02:59:32.296Z,1003.92
2017-07-17T03:00:42.331Z,1003.87
2017-07-17T03:32:49.723Z,1003.82
2017-07-17T03:34:00.071Z,1003.82
2017-07-17T03:35:10.409Z,1003.84
2017-07-17T03:36:20.440Z,1003.84
2017-07-17T03:37:30.797Z,1003.86
2017-07-17T03:38:41.184Z,1003.86
2017-07-17T03:39:51.545Z,1003.87
2017-07-17T03:41:01.891Z,1003.88
2017-07-17T03:42:12.233Z,1003.9
2017-07-17T03:43:22.591Z,1003.89
2017-07-17T03:44:32.681Z,1003.9
2017-07-17T03:45:42.706Z,1003.91
2017-07-17T03:46:52.747Z,1003.92
2017-07-17T03:48:02.783Z,1003.96
2017-07-17T03:49:13.119Z,1003.92
2017-07-17T03:50:23.532Z,1003.89
2017-07-17T03:51:33.879Z,1003.93
2017-07-17T03:52:44.219Z,1003.94
2017-07-17T03:53:54.562Z,1003.96
2017-07-17T03:55:04.912Z,1003.96
2017-07-17T03:56:15.286Z,1003.98
2017-07-17T03:57:25.323Z,1003.97
2017-07-17T03:58:35.679Z,1003.97
2017-07-17T03:59:46.027Z,1003.97
2017-07-17T04:00:56.398Z,1003.96
2017-07-17T04:02:06.804Z,1004
2017-07-17T04:03:17.158Z,1003.99
2017-07-17T04:04:27.542Z,1003.96
2017-07-17T04:05:37.892Z,1004.01
2017-07-17T04:06:48.303Z,1003.94
2017-07-17T04:07:58.716Z,1003.99
2017-07-17T04:09:09.069Z,1003.96
2017-07-17T04:10:19.422Z,1003.97
2017-07-17T04:11:29.133Z,1004.02
2017-07-17T04:12:39.499Z,1004.02
2017-07-17T04:13:49.901Z,1004.01
2017-07-17T04:15:00.285Z,1004.04
2017-07-17T04:16:10.311Z,1004.02
2017-07-17T04:17:20.654Z,1004.04
2017-07-17T04:18:31.008Z,1004.07
2017-07-17T04:19:41.128Z,1004.08
2017-07-17T04:20:51.475Z,1004.08
2017-07-17T04:22:01.817Z,1004.06
2017-07-17T04:23:12.168Z,1004.05
2017-07-17T04:24:22.503Z,1004.09
2017-07-17T04:25:32.547Z,1004.08
2017-07-17T04:26:42.889Z,1004.07
2017-07-17T04:27:53.249Z,1004.4
2017-07-17T04:29:03.590Z,1004.77
2017-07-17T04:30:13.936Z,1004.84
2017-07-17T04:31:24.289Z,1004.89
2017-07-17T04:32:34.326Z,1004.97
2017-07-17T04:33:44.134Z,1004.99
2017-07-17T04:34:54.160Z,1005.06
2017-07-17T04:36:04.508Z,1004.96
2017-07-17T04:37:14.917Z,1004.9
2017-07-17T04:38:25.269Z,1004.93
2017-07-17T04:39:35.617Z,1004.87
2017-07-17T04:40:45.016Z,1004.93
2017-07-17T04:41:55.062Z,1004.91
2017-07-17T04:43:05.112Z,1004.84
2017-07-17T04:44:15.157Z,1004.84
2017-07-17T04:45:25.207Z,1004.75
2017-07-17T04:46:35.554Z,1004.65
2017-07-17T04:47:45.939Z,1004.68
2017-07-17T04:48:56.041Z,1004.62
2017-07-17T04:50:06.078Z,1004.59
2017-07-17T04:51:16.128Z,1004.56
2017-07-17T04:52:26.486Z,1004.54
2017-07-17T04:53:36.513Z,1004.53
2017-07-17T04:54:46.863Z,1004.48
2017-07-17T04:55:57.241Z,1004.55
2017-07-17T04:57:07.614Z,1004.56
2017-07-17T04:58:17.654Z,1004.59
2017-07-17T04:59:27.703Z,1004.57
2017-07-17T05:00:37.750Z,1004.63
2017-07-17T05:01:48.121Z,1004.6
2017-07-17T05:02:58.502Z,1004.63
2017-07-17T05:04:08.535Z,1004.64
2017-07-17T05:05:18.902Z,1004.58
2017-07-17T05:06:28.681Z,1004.58
2017-07-17T05:07:38.405Z,1004.61
2017-07-17T05:08:48.442Z,1004.63
2017-07-17T05:09:58.472Z,1004.64
2017-07-17T05:11:08.824Z,1004.75
2017-07-17T05:12:19.226Z,1004.78
2017-07-17T05:13:29.568Z,1004.77
2017-07-17T05:14:39.940Z,1004.78
2017-07-17T05:15:50.302Z,1004.73
2017-07-17T05:17:00.649Z,1004.67
2017-07-17T05:18:11.055Z,1004.62
2017-07-17T05:19:21.416Z,1004.6
2017-07-17T05:20:31.780Z,1004.55
2017-07-17T05:21:42.120Z,1004.56
2017-07-17T05:22:52.486Z,1004.59
2017-07-17T05:24:02.584Z,1004.62
2017-07-17T05:25:12.927Z,1004.65
2017-07-17T05:26:22.967Z,1004.65
2017-07-17T05:27:33.319Z,1004.66
2017-07-17T05:28:43.046Z,1004.71
2017-07-17T05:29:53.450Z,1004.72
2017-07-17T05:31:03.816Z,1004.68
2017-07-17T05:32:14.187Z,1004.74
2017-07-17T05:33:24.559Z,1004.71
2017-07-17T05:34:34.607Z,1004.78
2017-07-17T05:35:45.009Z,1004.83
2017-07-17T05:36:55.361Z,1004.79
2017-07-17T05:38:05.726Z,1004.81
2017-07-17T05:39:16.095Z,1004.82
2017-07-17T05:40:26.467Z,1004.8
2017-07-17T05:41:36.251Z,1004.77
2017-07-17T05:42:46.295Z,1004.79
2017-07-17T05:43:56.336Z,1004.79
2017-07-17T05:45:06.377Z,1004.81
2017-07-17T05:46:16.762Z,1004.81
2017-07-17T05:47:26.539Z,1004.74
2017-07-17T05:48:36.917Z,1004.82
2017-07-17T05:49:46.975Z,1004.82
2017-07-17T05:50:57.334Z,1004.79
2017-07-17T05:52:07.695Z,1004.81
2017-07-17T05:53:17.472Z,1004.84
2017-07-17T05:54:27.831Z,1004.83
2017-07-17T05:55:38.284Z,1004.85
2017-07-17T05:56:48.660Z,1004.88
2017-07-17T05:57:59.012Z,1004.86
2017-07-17T05:59:09.056Z,1004.86
2017-07-17T06:00:18.779Z,1004.85
2017-07-17T06:01:29.126Z,1005.02
2017-07-17T06:02:38.214Z,1005.55
2017-07-17T06:03:48.244Z,1005.89
2017-07-17T06:04:58.327Z,1005.64
2017-07-17T06:06:08.687Z,1005.55
2017-07-17T06:07:19.035Z,1005.5
2017-07-17T06:08:29.416Z,1005.35
2017-07-17T06:09:39.770Z,1005.25
2017-07-17T06:10:50.170Z,1005.18
2017-07-17T06:12:00.538Z,1005.14
2017-07-17T06:13:10.898Z,1005.27
2017-07-17T06:14:21.245Z,1005.41
2017-07-17T06:15:31.289Z,1005.34
2017-07-17T06:16:41.717Z,1005.3
2017-07-17T06:17:52.080Z,1005.23
2017-07-17T06:19:02.132Z,1005.29
2017-07-17T06:20:12.499Z,1005.24
2017-07-17T06:21:22.860Z,1004.96
2017-07-17T06:22:32.643Z,1004.58
2017-07-17T06:23:42.974Z,1004.47
2017-07-17T06:24:52.696Z,1004.46
2017-07-17T06:26:02.407Z,1004.55
2017-07-17T06:27:12.759Z,1004.55
2017-07-17T06:28:23.117Z,1004.6
2017-07-17T06:29:33.477Z,1004.58
2017-07-17T06:30:43.500Z,1004.58
2017-07-17T06:31:53.873Z,1004.61
2017-07-17T06:33:04.249Z,1004.64
2017-07-17T06:34:14.610Z,1004.83
2017-07-17T06:35:24.638Z,1004.95
2017-07-17T06:36:34.672Z,1004.95
2017-07-17T06:37:45.024Z,1004.84
2017-07-17T06:38:55.389Z,1004.74
2017-07-17T06:40:05.515Z,1004.72
2017-07-17T06:41:15.885Z,1004.69
2017-07-17T06:42:26.267Z,1004.66
2017-07-17T06:43:36.625Z,1004.63
2017-07-17T06:44:46.981Z,1004.6
2017-07-17T06:45:57.066Z,1004.55
2017-07-17T06:47:07.427Z,1004.55
2017-07-17T06:48:17.465Z,1004.51
2017-07-17T06:49:27.812Z,1004.46
2017-07-17T06:50:38.168Z,1004.47
2017-07-17T06:51:48.577Z,1004.42
2017-07-17T06:52:58.939Z,1004.4
2017-07-17T06:54:08.655Z,1004.44
2017-07-17T06:55:18.426Z,1004.47
2017-07-17T06:56:28.784Z,1004.46
2017-07-17T06:57:38.868Z,1004.45
2017-07-17T06:58:49.223Z,1004.42
2017-07-17T06:59:59.576Z,1004.4
2017-07-17T07:01:09.965Z,1004.46
2017-07-17T07:02:20.330Z,1004.44
2017-07-17T07:03:30.735Z,1004.43
2017-07-17T07:04:41.085Z,1004.39
2017-07-17T07:05:51.437Z,1004.42
2017-07-17T07:07:01.476Z,1004.37
2017-07-17T07:08:11.502Z,1004.38
2017-07-17T07:09:21.623Z,1004.38
2017-07-17T07:10:31.986Z,1004.41
2017-07-17T07:11:42.342Z,1004.38
2017-07-17T07:12:52.375Z,1004.4
2017-07-17T07:14:02.425Z,1004.37
2017-07-17T07:15:12.838Z,1004.42
2017-07-17T07:16:23.214Z,1004.42
2017-07-17T07:17:33.586Z,1004.41
2017-07-17T07:18:43.957Z,1004.37
2017-07-17T07:19:54.322Z,1004.4
2017-07-17T07:21:04.395Z,1004.35
2017-07-17T07:22:14.743Z,1004.38
2017-07-17T07:23:25.084Z,1004.36
2017-07-17T07:24:35.112Z,1004.36
2017-07-17T07:25:45.453Z,1004.3
2017-07-17T07:26:55.501Z,1004.36
2017-07-17T07:28:05.848Z,1004.32
2017-07-17T07:29:16.213Z,1004.32
2017-07-17T07:30:26.251Z,1004.31
2017-07-17T07:31:36.600Z,1004.3
2017-07-17T07:32:47.005Z,1004.26
2017-07-17T07:33:57.059Z,1004.3
2017-07-17T07:35:07.409Z,1004.26
2017-07-17T07:36:17.761Z,1004.29
2017-07-17T07:37:28.118Z,1004.3
2017-07-17T07:38:38.539Z,1004.25
2017-07-17T07:39:48.912Z,1004.3
2017-07-17T07:40:58.937Z,1004.34
2017-07-17T07:42:09.309Z,1004.28
2017-07-17T07:43:19.350Z,1004.29
2017-07-17T07:44:29.717Z,1004.31
2017-07-17T07:45:40.087Z,1004.29
2017-07-17T07:46:50.445Z,1004.27
2017-07-17T07:48:00.480Z,1004.3
2017-07-17T07:49:10.548Z,1004.29
2017-07-17T07:50:20.952Z,1004.24
2017-07-17T07:51:31.317Z,1004.26
2017-07-17T07:52:41.663Z,1004.26
2017-07-17T07:53:51.686Z,1004.3
2017-07-17T07:55:02.026Z,1004.3
2017-07-17T07:56:12.428Z,1004.27
2017-07-17T07:57:22.824Z,1004.26
2017-07-17T07:58:32.863Z,1004.27
2017-07-17T07:59:43.206Z,1004.27
2017-07-17T08:00:53.237Z,1004.22
2017-07-17T08:02:03.648Z,1004.2
2017-07-17T08:03:14.009Z,1004.21
2017-07-17T08:04:24.376Z,1004.17
2017-07-17T08:05:34.418Z,1004.17
2017-07-17T08:06:44.790Z,1004.18
2017-07-17T08:07:55.195Z,1004.17
2017-07-17T08:09:05.232Z,1004.19
2017-07-17T08:10:15.590Z,1004.19
2017-07-17T08:11:25.937Z,1004.19
2017-07-17T08:12:36.317Z,1004.19
2017-07-17T08:13:46.404Z,1004.23
2017-07-17T08:14:56.760Z,1004.21
2017-07-17T08:16:07.110Z,1004.2
2017-07-17T08:17:17.462Z,1004.18
2017-07-17T08:18:27.803Z,1004.19
2017-07-17T08:19:38.214Z,1004.16
2017-07-17T08:20:48.250Z,1004.17
2017-07-17T08:21:58.641Z,1004.14
2017-07-17T08:23:08.999Z,1004.09
2017-07-17T08:24:19.026Z,1004.12
2017-07-17T08:25:29.417Z,1004.11
2017-07-17T08:26:39.766Z,1004.1
2017-07-17T08:27:50.134Z,1004.09
2017-07-17T08:29:00.506Z,1004.1
2017-07-17T08:30:10.859Z,1004.11
2017-07-17T08:31:20.949Z,1004.12
2017-07-17T08:32:31.318Z,1004.06
2017-07-17T08:33:41.660Z,1004.07
2017-07-17T08:34:52.038Z,1004.12
2017-07-17T08:36:02.383Z,1004.07
2017-07-17T08:37:12.804Z,1004.02
2017-07-17T08:38:22.844Z,1004.05
2017-07-17T08:39:33.203Z,1004.02
2017-07-17T08:40:43.565Z,1004.01
2017-07-17T08:41:53.919Z,1004.01
2017-07-17T08:43:03.973Z,1004.04
2017-07-17T08:44:14.332Z,1003.97
2017-07-17T08:45:24.373Z,1004.03
2017-07-17T08:46:34.739Z,1003.96
2017-07-17T08:47:45.104Z,1003.93
2017-07-17T08:48:55.462Z,1003.96
2017-07-17T08:50:05.806Z,1003.94
2017-07-17T08:51:16.167Z,1003.9
2017-07-17T08:52:26.543Z,1003.91
2017-07-17T08:53:36.898Z,1003.9
2017-07-17T08:54:47.317Z,1003.91
2017-07-17T08:55:57.374Z,1003.88
2017-07-17T08:57:07.727Z,1003.89
2017-07-17T08:58:18.091Z,1003.87
2017-07-17T08:59:28.168Z,1003.86
2017-07-17T09:00:38.564Z,1003.85
2017-07-17T09:01:48.949Z,1003.86
2017-07-17T09:02:59.008Z,1003.81
2017-07-17T09:04:09.377Z,1003.81
2017-07-17T09:05:19.743Z,1003.8
2017-07-17T09:06:30.180Z,1003.79
2017-07-17T09:07:40.228Z,1003.78
2017-07-17T09:08:50.583Z,1003.78
2017-07-17T09:10:00.937Z,1003.77
2017-07-17T09:11:10.978Z,1003.72
2017-07-17T09:12:21.068Z,1003.72
2017-07-17T09:13:31.435Z,1003.72
2017-07-17T09:14:41.469Z,1003.69
2017-07-17T09:15:51.514Z,1003.69
2017-07-17T09:17:01.865Z,1003.7
2017-07-17T09:18:12.272Z,1003.67
2017-07-17T09:19:22.327Z,1003.67
2017-07-17T09:20:32.674Z,1003.68
2017-07-17T09:21:42.706Z,1003.69
2017-07-17T09:22:53.075Z,1003.67
2017-07-17T09:24:02.480Z,1003.66
2017-07-17T09:25:12.837Z,1003.68
2017-07-17T09:26:23.205Z,1003.68
2017-07-17T09:27:33.558Z,1003.72
2017-07-17T09:28:43.913Z,1003.71
2017-07-17T09:29:54.357Z,1003.76
2017-07-17T09:31:04.091Z,1003.73
2017-07-17T09:32:14.452Z,1003.73
2017-07-17T09:33:24.814Z,1003.72
2017-07-17T09:34:35.182Z,1003.69
2017-07-17T09:35:45.280Z,1003.7
2017-07-17T09:36:55.315Z,1003.64
2017-07-17T09:38:05.352Z,1003.67
2017-07-17T09:39:15.729Z,1003.63
2017-07-17T09:40:25.765Z,1003.59
2017-07-17T09:41:36.152Z,1003.61
2017-07-17T09:42:45.554Z,1003.58
2017-07-17T09:43:55.916Z,1003.59
2017-07-17T09:45:05.643Z,1003.58
2017-07-17T09:46:15.727Z,1003.56
2017-07-17T09:47:26.137Z,1003.63
2017-07-17T09:48:36.515Z,1003.6
2017-07-17T09:49:46.554Z,1003.56
2017-07-17T09:50:56.292Z,1003.57
2017-07-17T09:52:06.328Z,1003.53
2017-07-17T09:53:16.409Z,1003.55
2017-07-17T09:54:26.443Z,1003.51
2017-07-17T09:55:36.487Z,1003.44
2017-07-17T09:56:46.528Z,1003.43
2017-07-17T09:57:56.894Z,1003.41
2017-07-17T09:59:07.317Z,1003.4
2017-07-17T10:00:17.746Z,1003.42
2017-07-17T10:01:28.123Z,1003.39
2017-07-17T10:02:38.176Z,1003.34
2017-07-17T10:03:48.557Z,1003.32
2017-07-17T10:04:58.964Z,1003.32
2017-07-17T10:06:08.687Z,1003.32
2017-07-17T10:07:19.081Z,1003.29
2017-07-17T10:08:29.445Z,1003.29
2017-07-17T10:09:39.839Z,1003.33
2017-07-17T10:10:49.921Z,1003.32
2017-07-17T10:12:00.292Z,1003.3
2017-07-17T10:13:10.339Z,1003.31
2017-07-17T10:14:20.706Z,1003.32
2017-07-17T10:15:31.073Z,1003.3
2017-07-17T10:16:40.525Z,1003.28
2017-07-17T10:17:50.563Z,1003.34
2017-07-17T10:19:00.642Z,1003.27
2017-07-17T10:20:11.015Z,1003.25
2017-07-17T10:21:21.390Z,1003.26
2017-07-17T10:22:31.475Z,1003.26
2017-07-17T10:23:41.814Z,1003.3
2017-07-17T10:24:51.873Z,1003.3
2017-07-17T10:26:02.246Z,1003.28
2017-07-17T10:27:12.308Z,1003.3
2017-07-17T10:28:22.687Z,1003.28
2017-07-17T10:29:33.059Z,1003.21
2017-07-17T10:30:43.422Z,1003.3
2017-07-17T10:31:53.479Z,1003.28
2017-07-17T10:33:03.526Z,1003.29
2017-07-17T10:34:13.249Z,1003.28
2017-07-17T10:35:23.617Z,1003.33
2017-07-17T10:36:33.985Z,1003.22
2017-07-17T10:37:44.021Z,1003.2
2017-07-17T10:38:54.383Z,1003.19
2017-07-17T10:40:04.485Z,1003.16
2017-07-17T10:41:14.847Z,1003.13
2017-07-17T10:42:24.899Z,1003.15
2017-07-17T10:43:34.646Z,1003.12
2017-07-17T10:44:44.998Z,1003.16
2017-07-17T10:45:55.434Z,1003.14
2017-07-17T10:47:05.491Z,1003.2
2017-07-17T10:48:15.842Z,1003.13
2017-07-17T10:49:26.207Z,1003.11
2017-07-17T10:50:36.571Z,1003.13
2017-07-17T10:51:45.991Z,1003.11
2017-07-17T10:52:56.357Z,1003.14
2017-07-17T10:54:06.717Z,1003.19
2017-07-17T10:55:17.084Z,1003.11
2017-07-17T10:56:27.445Z,1003.15
2017-07-17T10:57:37.792Z,1003.14
2017-07-17T10:58:48.162Z,1003.14
2017-07-17T10:59:58.522Z,1003.17
2017-07-17T11:01:08.877Z,1003.14
2017-07-17T11:02:19.253Z,1003.15
2017-07-17T11:03:29.060Z,1003.2
2017-07-17T11:04:39.434Z,1003.19
2017-07-17T11:05:49.163Z,1003.16
2017-07-17T11:06:59.539Z,1003.13
2017-07-17T11:08:09.904Z,1003.15
2017-07-17T11:09:20.362Z,1003.1
2017-07-17T11:10:30.397Z,1003.15
2017-07-17T11:11:40.436Z,1003.16
2017-07-17T11:12:50.791Z,1003.18
2017-07-17T11:14:00.837Z,1003.14
2017-07-17T11:15:10.597Z,1003.09
2017-07-17T11:16:20.632Z,1003.09
2017-07-17T11:17:30.996Z,1003.14
2017-07-17T11:18:41.368Z,1003.08
2017-07-17T11:19:51.729Z,1003.17
2017-07-17T11:21:01.793Z,1003.08
2017-07-17T11:22:12.152Z,1003.09
2017-07-17T11:23:22.196Z,1003.06
2017-07-17T11:24:32.250Z,1003.12
2017-07-17T11:25:42.596Z,1003.07
2017-07-17T11:26:52.692Z,1003.16
2017-07-17T11:28:02.433Z,1003.08
2017-07-17T11:29:12.489Z,1003.07
2017-07-17T11:30:22.526Z,1003.04
2017-07-17T11:31:32.895Z,1003.05
2017-07-17T11:32:43.007Z,1003.08
2017-07-17T11:33:53.351Z,1003.09
2017-07-17T11:35:03.416Z,1003.09
2017-07-17T11:36:13.456Z,1003.03
2017-07-17T11:37:23.512Z,1003.03
2017-07-17T11:38:33.559Z,1003.01
2017-07-17T11:39:43.942Z,1003.02
2017-07-17T11:40:53.973Z,1002.99
2017-07-17T11:42:04.013Z,1003.01
2017-07-17T11:43:14.383Z,1002.98
2017-07-17T11:44:24.761Z,1002.99
2017-07-17T11:45:35.135Z,1003.03
2017-07-17T11:56:10.096Z,1002.97
2017-07-17T11:57:20.486Z,1002.97
2017-07-17T11:58:29.412Z,1002.96
2017-07-17T11:59:39.456Z,1002.97
2017-07-17T12:00:49.514Z,1002.97
2017-07-17T12:01:59.870Z,1002.95
2017-07-17T12:03:09.609Z,1002.95
2017-07-17T12:04:19.321Z,1002.91
2017-07-17T12:06:38.236Z,1002.86
2017-07-17T12:07:48.593Z,1002.85
2017-07-17T12:08:58.959Z,1002.81
2017-07-17T12:10:09.312Z,1002.8
2017-07-17T12:11:19.686Z,1002.74
2017-07-17T12:12:30.124Z,1002.74
2017-07-17T12:13:40.153Z,1002.72
2017-07-17T12:14:50.501Z,1002.71
2017-07-17T12:16:00.874Z,1002.78
2017-07-17T12:17:11.246Z,1002.73
2017-07-17T12:18:21.602Z,1002.78
2017-07-17T12:19:31.943Z,1002.75
2017-07-17T12:20:42.304Z,1002.7
2017-07-17T12:21:52.684Z,1002.68
2017-07-17T12:23:02.226Z,1002.71
2017-07-17T12:24:12.610Z,1002.67
2017-07-17T12:25:22.679Z,1002.7
2017-07-17T12:26:33.030Z,1002.68
2017-07-17T12:27:43.088Z,1002.61
2017-07-17T12:28:53.113Z,1002.64
2017-07-17T12:30:03.486Z,1002.59
2017-07-17T12:31:13.852Z,1002.59
2017-07-17T12:32:23.888Z,1002.6
2017-07-17T12:33:33.932Z,1002.62
2017-07-17T12:34:43.965Z,1002.59
2017-07-17T12:35:53.678Z,1002.54
2017-07-17T12:37:04.281Z,1002.57
2017-07-17T12:38:14.309Z,1002.56
2017-07-17T12:39:24.694Z,1002.51
2017-07-17T12:40:34.412Z,1002.53
2017-07-17T12:41:44.769Z,1002.48
2017-07-17T12:42:55.130Z,1002.54
2017-07-17T12:44:05.476Z,1002.49
2017-07-17T12:45:15.537Z,1002.48
2017-07-17T12:46:25.265Z,1002.47
2017-07-17T12:47:35.308Z,1002.48
2017-07-17T12:48:45.669Z,1002.48
2017-07-17T12:49:56.025Z,1002.48
2017-07-17T12:51:06.399Z,1002.47
2017-07-17T12:52:16.530Z,1002.46
2017-07-17T12:53:26.566Z,1002.42
2017-07-17T12:54:36.937Z,1002.47
2017-07-17T12:55:47.305Z,1002.46
2017-07-17T12:56:57.368Z,1002.44
2017-07-17T12:58:07.730Z,1002.43
2017-07-17T12:59:17.785Z,1002.42
2017-07-17T13:00:27.822Z,1002.43
2017-07-17T13:01:38.173Z,1002.4
2017-07-17T13:02:48.565Z,1002.42
2017-07-17T13:03:58.974Z,1002.37
2017-07-17T13:05:09.353Z,1002.42
2017-07-17T13:06:19.384Z,1002.39
2017-07-17T13:07:29.773Z,1002.42
2017-07-17T13:08:40.144Z,1002.37
2017-07-17T13:09:50.506Z,1002.36
2017-07-17T13:11:00.538Z,1002.36
2017-07-17T13:12:10.262Z,1002.28
2017-07-17T13:13:19.706Z,1002.29
2017-07-17T13:14:30.078Z,1002.25
2017-07-17T13:15:39.526Z,1002.27
2017-07-17T13:16:49.878Z,1002.29
2017-07-17T13:18:00.250Z,1002.3
2017-07-17T13:19:10.290Z,1002.29
2017-07-17T13:20:20.358Z,1002.33
2017-07-17T13:21:30.534Z,1002.37
2017-07-17T13:22:40.568Z,1002.31
2017-07-17T13:23:50.615Z,1002.31
2017-07-17T13:25:00.650Z,1002.33
2017-07-17T13:26:10.682Z,1002.32
2017-07-17T13:27:20.881Z,1002.24
2017-07-17T13:28:31.224Z,1002.25
2017-07-17T13:29:41.613Z,1002.26
2017-07-17T13:30:51.987Z,1002.22
2017-07-17T13:32:02.366Z,1002.27
2017-07-17T13:33:12.769Z,1002.21
2017-07-17T13:34:23.134Z,1002.2
2017-07-17T13:35:33.170Z,1002.17
2017-07-17T13:36:43.521Z,1002.15
2017-07-17T13:37:53.914Z,1002.12
2017-07-17T13:39:03.998Z,1002.1
2017-07-17T13:40:14.343Z,1002.12
2017-07-17T13:41:24.733Z,1002.21
2017-07-17T13:42:35.070Z,1002.19
2017-07-17T13:43:45.456Z,1002.21
2017-07-17T13:44:55.814Z,1002.24
2017-07-17T13:46:06.168Z,1002.15
2017-07-17T13:47:16.547Z,1002.12
2017-07-17T13:48:26.612Z,1002.11
2017-07-17T13:49:37.011Z,1002.06
2017-07-17T13:50:47.470Z,1002.15
2017-07-17T13:51:57.872Z,1002.15
2017-07-17T13:53:07.931Z,1002.14
2017-07-17T13:54:18.331Z,1002.21
2017-07-17T13:55:28.428Z,1002.2
2017-07-17T13:56:38.897Z,1002.18
2017-07-17T13:57:49.308Z,1002.23
2017-07-17T13:58:59.711Z,1002.11
2017-07-17T14:00:09.795Z,1002.21
2017-07-17T14:01:19.899Z,1002.17
2017-07-17T14:02:30.333Z,1002.21
2017-07-17T14:03:40.714Z,1002.17
2017-07-17T14:04:51.086Z,1002.2
2017-07-17T14:06:01.457Z,1002.19
2017-07-17T14:07:11.839Z,1002.22
2017-07-17T14:08:21.914Z,1002.14
2017-07-17T14:09:31.996Z,1002.11
2017-07-17T14:10:42.379Z,1002.14
2017-07-17T14:11:52.427Z,1002.12
2017-07-17T14:13:01.915Z,1002.16
2017-07-17T14:14:12.276Z,1002.12
2017-07-17T14:15:22.688Z,1002.07
2017-07-17T14:16:32.753Z,1002.09
2017-07-17T14:17:43.106Z,1002.09
2017-07-17T14:18:53.513Z,1002.09
2017-07-17T14:20:03.883Z,1002.12
2017-07-17T14:21:14.260Z,1002.08
2017-07-17T14:22:24.628Z,1002.03
2017-07-17T14:23:34.994Z,1002.07
2017-07-17T14:24:45.420Z,1002.04
2017-07-17T14:25:55.502Z,1002.03
2017-07-17T14:27:05.890Z,1002.05
2017-07-17T14:28:16.277Z,1002.05
2017-07-17T14:29:26.657Z,1002.09
2017-07-17T14:30:36.757Z,1002.05
2017-07-17T14:31:47.122Z,1002.02
2017-07-17T14:32:57.480Z,1002.05
2017-07-17T14:34:07.841Z,1002.01
2017-07-17T14:35:17.913Z,1001.98
2017-07-17T14:36:28.306Z,1001.98
2017-07-17T14:37:38.661Z,1001.97
2017-07-17T14:38:49.036Z,1001.98
2017-07-17T14:39:59.403Z,1001.94
2017-07-17T14:41:09.465Z,1001.98
2017-07-17T14:42:19.521Z,1001.94
2017-07-17T14:43:29.621Z,1001.93
2017-07-17T14:44:39.981Z,1001.92
2017-07-17T14:45:50.033Z,1001.86
2017-07-17T14:47:00.427Z,1001.84
2017-07-17T14:48:10.539Z,1001.74
2017-07-17T14:49:20.926Z,1001.83
2017-07-17T14:50:31.328Z,1001.82
2017-07-17T14:51:41.715Z,1001.81
2017-07-17T14:52:52.062Z,1001.78
2017-07-17T14:54:02.157Z,1001.77